Terminal Aerodrome Forecast
Issued by NWS

Home | Current Version | Previous Version | Text Only | Print | Product List | Glossary On
Versions: 1 2 3 4 5 6 7 8 9 10 11 12 13 14 15 16 17 18 19 20
000
FTUS45 KTFX 311700
TAFHVR
TAF
KHVR 311739Z 3118/0118 05014KT 3/4SM -SN BR OVC010
      TEMPO 3118/3120 2SM -SN BR OVC015
     FM312100 05010KT 4SM -SN OVC015
      TEMPO 3121/3124 1SM -SN OVC010
     FM010100 05008KT P6SM OVC015
     FM011100 VRB05KT 2SM BR OVC005
     FM011700 12005KT P6SM BKN250=

USA.gov is the U.S. government's official web portal to all federal, state and local government web resources and services.